createdAt,value
2018-07-01T00:00:29.017Z,95103.5
2018-07-01T00:05:27.052Z,95101.6
2018-07-01T00:10:25.042Z,95105.6
2018-07-01T00:15:23.438Z,95105.1
2018-07-01T00:20:21.500Z,95024.3
2018-07-01T00:25:20.019Z,95042.6
2018-07-01T00:30:18.030Z,95120.5
2018-07-01T00:35:16.546Z,95036.5
2018-07-01T00:40:14.886Z,95047.4
2018-07-01T00:45:13.053Z,95047
2018-07-01T00:50:11.089Z,95124.5
2018-07-01T00:55:09.403Z,95124.1
2018-07-01T01:00:07.517Z,95123.2
2018-07-01T01:05:07.873Z,95048.9
2018-07-01T01:10:05.968Z,95050.4
2018-07-01T01:15:04.216Z,95052.6
2018-07-01T01:20:02.057Z,95147
2018-07-01T01:25:00.583Z,95142
2018-07-01T01:29:59.039Z,95161.4
2018-07-01T01:34:57.642Z,95168.1
2018-07-01T01:39:55.393Z,95174.1
2018-07-01T01:44:53.202Z,95192.2
2018-07-01T01:49:51.691Z,95199.6
2018-07-01T01:54:49.328Z,95126.5
2018-07-01T01:59:47.612Z,95219.9
2018-07-01T02:04:45.855Z,95221.8
2018-07-01T02:09:43.582Z,95146.5
2018-07-01T02:14:41.788Z,95220.2
2018-07-01T02:19:39.843Z,95141.7
2018-07-01T02:24:37.866Z,95174.1
2018-07-01T02:29:36.416Z,95228
2018-07-01T02:34:34.499Z,95239.1
2018-07-01T02:39:33.044Z,95250.1
2018-07-01T02:44:30.921Z,95257.2
2018-07-01T02:49:29.802Z,95262.7
2018-07-01T02:54:28.531Z,95185.5
2018-07-01T02:59:26.639Z,95281.6
2018-07-01T03:04:25.180Z,95214.5
2018-07-01T03:09:22.921Z,95267.4
2018-07-01T03:14:21.721Z,95299
2018-07-01T03:19:20.050Z,95312.1
2018-07-01T03:24:18.403Z,95262.5
2018-07-01T03:29:16.600Z,95294.5
2018-07-01T03:34:14.952Z,95258.1
2018-07-01T03:39:12.786Z,95259.1
2018-07-01T03:44:10.710Z,95348.9
2018-07-01T03:49:08.865Z,95353.6
2018-07-01T03:54:07.980Z,95357.8
2018-07-01T03:59:05.942Z,95281
2018-07-01T04:04:04.261Z,95356.1
2018-07-01T04:09:02.722Z,95327.7
2018-07-01T04:14:00.782Z,95373.9
2018-07-01T04:18:58.948Z,95288.6
2018-07-01T04:23:57.390Z,95375
2018-07-01T04:28:56.081Z,95368.3
2018-07-01T04:33:54.603Z,95369.6
2018-07-01T04:38:52.337Z,95273.4
2018-07-01T04:43:50.621Z,95379.5
2018-07-01T04:48:48.807Z,95305.5
2018-07-01T04:53:47.678Z,95400.6
2018-07-01T04:58:45.700Z,95316.3
2018-07-01T05:03:43.343Z,95328.1
2018-07-01T05:08:41.526Z,95344.7
2018-07-01T05:13:39.647Z,95349.7
2018-07-01T05:18:37.938Z,95432.2
2018-07-01T05:23:36.090Z,95356.5
2018-07-01T05:28:34.558Z,95399.7
2018-07-01T05:33:32.666Z,95363.9
2018-07-01T05:38:30.822Z,95376.8
2018-07-01T05:43:29.264Z,95372.6
2018-07-01T05:48:27.566Z,95409.8
2018-07-01T05:53:25.961Z,95376.4
2018-07-01T05:58:23.790Z,95463
2018-07-01T06:03:22.520Z,94892.2
2018-07-01T06:08:20.813Z,95421.1
2018-07-01T06:13:18.651Z,95465.8
2018-07-01T06:18:16.854Z,95455.4
2018-07-01T06:23:15.451Z,95462.4
2018-07-01T06:28:13.635Z,95456.9
2018-07-01T06:33:12.132Z,95455.7
2018-07-01T06:38:10.313Z,95465.4
2018-07-01T06:43:12.333Z,95416.2
2018-07-01T06:48:08.811Z,95408.7
2018-07-01T06:53:07.094Z,95467.6
2018-07-01T06:58:05.774Z,95472.6
2018-07-01T07:03:03.661Z,95455.8
2018-07-01T07:08:02.105Z,95457.6
2018-07-01T07:12:59.645Z,95446.6
2018-07-01T07:17:59.513Z,95452.4
2018-07-01T07:22:57.408Z,95464.7
2018-07-01T07:27:55.094Z,95339.6
2018-07-01T07:32:53.505Z,95372.7
2018-07-01T07:37:51.490Z,95453.8
2018-07-01T07:42:49.609Z,95323.6
2018-07-01T07:47:46.688Z,95457.5
2018-07-01T07:52:48.187Z,95373.1
2018-07-01T07:57:45.719Z,95463.4
2018-07-01T08:02:43.505Z,95456.8
2018-07-01T08:07:42.265Z,95462
2018-07-01T08:12:40.112Z,95456.9
2018-07-01T08:17:38.445Z,95456.8
2018-07-01T08:22:37.521Z,95372.7
2018-07-01T08:27:35.731Z,95381.8
2018-07-01T08:32:33.512Z,95467.9
2018-07-01T08:37:33.127Z,95386.9
2018-07-01T08:42:30.542Z,95462.9
2018-07-01T08:47:28.303Z,95452.5
2018-07-01T08:52:27.200Z,95459.1
2018-07-01T08:57:24.455Z,95460.7
2018-07-01T09:02:22.641Z,95459.2
2018-07-01T09:07:21.662Z,95454.1
2018-07-01T09:12:20.058Z,95446.7
2018-07-01T09:17:18.586Z,95451.8
2018-07-01T09:22:17.449Z,95370.5
2018-07-01T09:27:15.411Z,95456
2018-07-01T09:32:13.356Z,95451.5
2018-07-01T09:37:11.341Z,95445.8
2018-07-01T09:42:07.059Z,95455.8
2018-07-01T09:47:05.886Z,95376.1
2018-07-01T09:52:03.970Z,95453.1
2018-07-01T09:57:02.036Z,95446.8
2018-07-01T10:02:00.821Z,95451.2
2018-07-01T10:07:04.701Z,95513.3
2018-07-01T10:12:09.839Z,95351.6
2018-07-01T10:17:06.801Z,95349.3
2018-07-01T10:22:05.789Z,95361.2
2018-07-01T10:27:03.567Z,95433
2018-07-01T10:32:01.982Z,95355.8
2018-07-01T10:37:00.774Z,95350.8
2018-07-01T10:41:59.468Z,95450.5
2018-07-01T10:46:57.543Z,95453.1
2018-07-01T10:51:55.690Z,95440.5
2018-07-01T10:56:53.923Z,95437
2018-07-01T11:01:51.428Z,95426.4
2018-07-01T11:06:51.090Z,95300.6
2018-07-01T11:11:48.696Z,95435.2
2018-07-01T11:16:46.878Z,95407.9
2018-07-01T11:21:45.277Z,95497.6
2018-07-01T11:26:42.508Z,95425.1
2018-07-01T11:31:39.849Z,95419.3
2018-07-01T11:36:43.434Z,95221.4
2018-07-01T11:41:40.120Z,95423.4
2018-07-01T11:46:38.201Z,95415.6
2018-07-01T11:51:37.688Z,95425
2018-07-01T11:56:34.809Z,95424.5
2018-07-01T12:01:33.666Z,95424.6
2018-07-01T12:06:31.826Z,95412.9
2018-07-01T12:11:30.309Z,95425.6
2018-07-01T12:16:29.059Z,95396.4
2018-07-01T12:21:27.050Z,95417.1
2018-07-01T12:26:25.095Z,95403.6
2018-07-01T12:31:23.419Z,95400.2
2018-07-01T12:36:21.768Z,95397.5
2018-07-01T12:41:19.990Z,95398.3
2018-07-01T12:46:18.238Z,95299.5
2018-07-01T12:51:16.033Z,95403
2018-07-01T12:56:14.731Z,95392.6
2018-07-01T13:01:12.833Z,95395.8
2018-07-01T13:06:11.249Z,95409
2018-07-01T13:11:09.862Z,95403
2018-07-01T13:16:08.663Z,95398.6
2018-07-01T13:21:07.221Z,95392.5
2018-07-01T13:26:05.535Z,95396.8
2018-07-01T13:31:02.914Z,95392.8
2018-07-01T13:36:01.038Z,95405.1
2018-07-01T13:40:59.027Z,95393.1
2018-07-01T13:45:57.626Z,95400.4
2018-07-01T13:50:56.008Z,95404.1
2018-07-01T13:55:54.043Z,95408.9
2018-07-01T14:00:52.203Z,95405.4
2018-07-01T14:05:50.950Z,95415.1
2018-07-01T14:10:48.820Z,95324.1
2018-07-01T14:15:47.037Z,95422
2018-07-01T14:20:44.898Z,95305.5
2018-07-01T14:25:43.192Z,95426.1
2018-07-01T14:30:40.724Z,95431.6
2018-07-01T14:35:38.991Z,95346.5
2018-07-01T14:40:37.542Z,95353.6
2018-07-01T14:45:35.713Z,95415.9
2018-07-01T14:50:33.648Z,95424.2
2018-07-01T14:55:32.248Z,95344.8
2018-07-01T15:00:30.579Z,95411.7
2018-07-01T15:05:28.759Z,95412.1
2018-07-01T15:10:27.152Z,95332.4
2018-07-01T15:15:25.582Z,95406.2
2018-07-01T15:20:23.620Z,95329.9
2018-07-01T15:25:21.836Z,95398.5
2018-07-01T15:30:19.974Z,95391.5
2018-07-01T15:35:18.865Z,95304.1
2018-07-01T15:40:17.476Z,95387.6
2018-07-01T15:45:15.741Z,95386.4
2018-07-01T15:50:14.286Z,95399.4
2018-07-01T15:55:12.382Z,95392.7
2018-07-01T16:00:09.623Z,95390.1
2018-07-01T16:05:07.944Z,95388.8
2018-07-01T16:10:06.064Z,95386.3
2018-07-01T16:15:04.108Z,95387.3
2018-07-01T16:20:01.699Z,95399.7
2018-07-01T16:25:00.094Z,95395.1
2018-07-01T16:29:58.453Z,95321.7
2018-07-01T16:35:01.113Z,95341.8
2018-07-01T16:39:58.390Z,95399.8
2018-07-01T16:44:56.920Z,95403.1
2018-07-01T16:49:54.742Z,95403.6
2018-07-01T16:54:53.027Z,95323.4
2018-07-01T16:59:51.482Z,95368.5
2018-07-01T17:04:49.515Z,95402.7
2018-07-01T17:09:47.490Z,95401.2
2018-07-01T17:14:45.885Z,95399.7
2018-07-01T17:19:44.359Z,95326.8
2018-07-01T17:24:42.463Z,95324.7
2018-07-01T17:29:41.216Z,95405.3
2018-07-01T17:34:39.177Z,95404.7
2018-07-01T17:39:38.053Z,95417.6
2018-07-01T17:44:36.202Z,95420.9
2018-07-01T17:49:34.067Z,95424.5
2018-07-01T17:54:32.145Z,95366.6
2018-07-01T17:59:30.832Z,95442.4
2018-07-01T18:04:29.353Z,95365.4
2018-07-01T18:09:27.736Z,95449.7
2018-07-01T18:14:25.609Z,95446.7
2018-07-01T18:19:24.037Z,95368.3
2018-07-01T18:24:48.912Z,95374.4
2018-07-01T18:29:21.688Z,95385.1
2018-07-01T18:34:19.226Z,95471.4
2018-07-01T18:39:17.092Z,95403.3
2018-07-01T18:44:15.725Z,95519.6
2018-07-01T18:49:13.902Z,95441.3
2018-07-01T18:54:12.005Z,95540.8
2018-07-01T18:59:10.334Z,95458.8
2018-07-01T19:04:08.297Z,95531.2
2018-07-01T19:09:06.864Z,95435
2018-07-01T19:14:04.390Z,95529.2
2018-07-01T19:19:01.680Z,95474.4
2018-07-01T19:23:59.733Z,95543.4
2018-07-01T19:28:56.760Z,95546.6
2018-07-01T19:33:54.571Z,95564.9
2018-07-01T19:38:52.378Z,95559.7
2018-07-01T19:43:50.250Z,95565
2018-07-01T19:48:47.922Z,95548.1
2018-07-01T19:53:45.305Z,95546
2018-07-01T19:58:42.576Z,95541.3
2018-07-01T20:03:39.965Z,95536.2
2018-07-01T20:08:37.272Z,95553.1
2018-07-01T20:13:34.832Z,95537.8
2018-07-01T20:18:31.841Z,95539.1
2018-07-01T20:23:29.067Z,95541.4
2018-07-01T20:28:26.209Z,95551.3
2018-07-01T20:33:23.263Z,95550.5
2018-07-01T20:38:20.692Z,95558.1
2018-07-01T20:43:17.912Z,95556.8
2018-07-01T20:48:15.719Z,95553
2018-07-01T20:53:12.852Z,95494.3
2018-07-01T20:58:10.391Z,95549.3
2018-07-01T21:03:07.692Z,95546
2018-07-01T21:08:05.337Z,95546.4
2018-07-01T21:13:02.796Z,95548.9
2018-07-01T21:18:00.437Z,95519.3
2018-07-01T21:22:57.413Z,95539.5
2018-07-01T21:27:54.884Z,95549.5
2018-07-01T21:32:52.817Z,95539.8
2018-07-01T21:37:50.965Z,95362.2
2018-07-01T21:42:48.510Z,95530.2
2018-07-01T21:47:46.486Z,95549.6
2018-07-01T21:52:44.175Z,95549.3
2018-07-01T21:57:41.767Z,95558.2
2018-07-01T22:02:39.412Z,95556.7
2018-07-01T22:07:37.390Z,95563.9
2018-07-01T22:12:35.301Z,95562.4
2018-07-01T22:17:33.080Z,95553.8
2018-07-01T22:22:30.876Z,95554
2018-07-01T22:27:29.926Z,95554.1
2018-07-01T22:32:27.905Z,95572.8
2018-07-01T22:37:25.390Z,95570.4
2018-07-01T22:42:23.086Z,95566.9
2018-07-01T22:47:20.993Z,95571.4
2018-07-01T22:52:18.880Z,95575.4
2018-07-01T22:57:17.069Z,95572.1
2018-07-01T23:02:15.171Z,95588.5
2018-07-01T23:07:12.930Z,95602.4
2018-07-01T23:12:10.692Z,95638.3
2018-07-01T23:17:08.944Z,95680.6
2018-07-01T23:22:06.538Z,95718.3
2018-07-01T23:27:04.649Z,95705.5
2018-07-01T23:32:02.519Z,95684.8
2018-07-01T23:37:00.565Z,95576.4
2018-07-01T23:41:58.629Z,95633.6
2018-07-01T23:46:56.422Z,95575.4
2018-07-01T23:51:54.375Z,95578.9
2018-07-01T23:56:51.658Z,95677.2
